createdAt,value
2022-10-19T00:00:53.590Z,9.443696
2022-10-19T00:01:53.625Z,9.443779
2022-10-19T00:02:53.605Z,9.443727
2022-10-19T00:03:53.596Z,9.443686
2022-10-19T00:04:53.568Z,9.443698
2022-10-19T00:05:53.571Z,9.443720
2022-10-19T00:06:53.547Z,9.443723
2022-10-19T00:07:53.557Z,9.443727
2022-10-19T00:08:53.574Z,9.443789
2022-10-19T00:09:53.534Z,9.443715
2022-10-19T00:10:53.539Z,9.443714
2022-10-19T00:11:53.510Z,9.443733
2022-10-19T00:12:53.536Z,9.443779
2022-10-19T00:13:53.542Z,9.443768
2022-10-19T00:14:53.502Z,9.443770
2022-10-19T00:15:53.494Z,9.443758
2022-10-19T00:16:53.483Z,9.443691
2022-10-19T00:17:53.488Z,9.443686
2022-10-19T00:18:53.494Z,9.443730
2022-10-19T00:19:53.486Z,9.443701
2022-10-19T00:20:53.462Z,9.443751
2022-10-19T00:21:53.466Z,9.443741
2022-10-19T00:22:53.457Z,9.443731
2022-10-19T00:23:53.446Z,9.443657
2022-10-19T00:24:54.411Z,9.443697
2022-10-19T00:25:53.481Z,9.443754
2022-10-19T00:26:53.422Z,9.443808
2022-10-19T00:27:53.409Z,9.443809
2022-10-19T00:28:53.509Z,9.443785
2022-10-19T00:29:53.407Z,9.443823
2022-10-19T00:30:53.399Z,9.443804
2022-10-19T00:31:53.389Z,9.443765
2022-10-19T00:32:53.381Z,9.443742
2022-10-19T00:33:53.370Z,9.443712
2022-10-19T00:34:53.378Z,9.443686
2022-10-19T00:35:53.382Z,9.443692
2022-10-19T00:36:53.349Z,9.443783
2022-10-19T00:37:53.358Z,9.443773
2022-10-19T00:38:53.325Z,9.443718
2022-10-19T00:39:53.349Z,9.443792
2022-10-19T00:40:53.326Z,9.443830
2022-10-19T00:41:53.334Z,9.443799
2022-10-19T00:42:53.314Z,9.443714
2022-10-19T00:43:53.327Z,9.443675
2022-10-19T00:44:53.332Z,9.443747
2022-10-19T00:45:53.297Z,9.443699
2022-10-19T00:46:53.296Z,9.443612
2022-10-19T00:47:53.278Z,9.443698
2022-10-19T00:48:53.271Z,9.443698
2022-10-19T00:49:53.274Z,9.443599
2022-10-19T00:50:53.277Z,9.443691
2022-10-19T00:51:53.257Z,9.443760
2022-10-19T00:52:53.241Z,9.443785
2022-10-19T00:53:53.253Z,9.443751
2022-10-19T00:54:53.230Z,9.443703
2022-10-19T00:55:53.270Z,9.443657
2022-10-19T00:56:53.214Z,9.443673
2022-10-19T00:57:53.242Z,9.443587
2022-10-19T00:58:53.226Z,9.443584
2022-10-19T00:59:53.221Z,9.443681
2022-10-19T01:00:53.248Z,9.443666
2022-10-19T01:01:53.294Z,9.443688
2022-10-19T01:02:53.175Z,9.443602
2022-10-19T01:03:53.197Z,9.443557
2022-10-19T01:04:53.170Z,9.443586
2022-10-19T01:05:53.166Z,9.443522
2022-10-19T01:06:53.196Z,9.443631
2022-10-19T01:07:53.163Z,9.443668
2022-10-19T01:08:53.145Z,9.443646
2022-10-19T01:09:53.186Z,9.443490
2022-10-19T01:10:53.130Z,9.443618
2022-10-19T01:11:53.133Z,9.443582
2022-10-19T01:12:53.109Z,9.443749
2022-10-19T01:13:53.101Z,9.443722
2022-10-19T01:14:53.117Z,9.443640
2022-10-19T01:16:53.098Z,9.443738
2022-10-19T01:17:53.979Z,9.443690
2022-10-19T01:18:53.122Z,9.443538
2022-10-19T01:19:53.065Z,9.443645
2022-10-19T01:20:53.050Z,9.443604
2022-10-19T01:21:53.073Z,9.443492
2022-10-19T01:22:53.064Z,9.443409
2022-10-19T01:23:53.029Z,9.443242
2022-10-19T01:24:53.018Z,9.443227
2022-10-19T01:25:53.017Z,9.443442
2022-10-19T01:26:53.050Z,9.443425
2022-10-19T01:27:53.008Z,9.443498
2022-10-19T01:28:53.097Z,9.443664
2022-10-19T01:29:53.006Z,9.443715
2022-10-19T01:30:52.989Z,9.443574
2022-10-19T01:31:52.985Z,9.443439
2022-10-19T01:32:52.998Z,9.443456
2022-10-19T01:33:53.015Z,9.443655
2022-10-19T01:34:52.965Z,9.443521
2022-10-19T01:35:52.939Z,9.443718
2022-10-19T01:36:52.953Z,9.443843
2022-10-19T01:37:52.965Z,9.443791
2022-10-19T01:38:52.928Z,9.443869
2022-10-19T01:39:52.921Z,9.443853
2022-10-19T01:40:52.933Z,9.443663
2022-10-19T01:41:52.933Z,9.443579
2022-10-19T01:42:52.901Z,9.443532
2022-10-19T01:43:52.931Z,9.443585
2022-10-19T01:44:52.884Z,9.443679
2022-10-19T01:45:52.881Z,9.443727
2022-10-19T01:46:52.891Z,9.443834
2022-10-19T01:47:52.878Z,9.443769
2022-10-19T01:48:52.879Z,9.443667
2022-10-19T01:49:52.863Z,9.443637
2022-10-19T01:50:52.849Z,9.443691
2022-10-19T01:51:52.871Z,9.443665
2022-10-19T01:52:52.856Z,9.443728
2022-10-19T01:53:52.837Z,9.443706
2022-10-19T01:54:52.824Z,9.443685
2022-10-19T01:55:52.823Z,9.443721
2022-10-19T01:56:52.808Z,9.443798
2022-10-19T01:57:52.810Z,9.443783
2022-10-19T01:58:52.810Z,9.443721
2022-10-19T01:59:52.789Z,9.443726
2022-10-19T02:00:52.914Z,9.443689
2022-10-19T02:01:53.792Z,9.443711
2022-10-19T02:02:52.773Z,9.443722
2022-10-19T02:03:52.784Z,9.443684
2022-10-19T02:04:52.775Z,9.443750
2022-10-19T02:05:52.753Z,9.443642
2022-10-19T02:06:52.749Z,9.443666
2022-10-19T02:07:52.735Z,9.443736
2022-10-19T02:08:52.746Z,9.443699
2022-10-19T02:09:52.721Z,9.443788
2022-10-19T02:10:52.897Z,9.443762
2022-10-19T02:11:56.160Z,9.443779
2022-10-19T02:12:52.705Z,9.443741
2022-10-19T02:13:53.509Z,9.443768
2022-10-19T02:14:52.708Z,9.443705
2022-10-19T02:15:52.765Z,9.443767
2022-10-19T02:16:52.677Z,9.443780
2022-10-19T02:17:52.678Z,9.443797
2022-10-19T02:18:52.682Z,9.443773
2022-10-19T02:19:52.673Z,9.443764
2022-10-19T02:20:52.725Z,9.443800
2022-10-19T02:21:52.652Z,9.443789
2022-10-19T02:22:52.624Z,9.443813
2022-10-19T02:23:54.195Z,9.443774
2022-10-19T02:24:52.638Z,9.443811
2022-10-19T02:25:52.622Z,9.443769
2022-10-19T02:26:52.617Z,9.443783
2022-10-19T02:27:52.601Z,9.443779
2022-10-19T02:28:52.615Z,9.443767
2022-10-19T02:29:52.620Z,9.443731
2022-10-19T02:30:52.588Z,9.443747
2022-10-19T02:31:52.585Z,9.443773
2022-10-19T02:32:52.566Z,9.443758
2022-10-19T02:33:52.561Z,9.443786
2022-10-19T02:34:52.570Z,9.443767
2022-10-19T02:35:53.468Z,9.443750
2022-10-19T02:36:52.540Z,9.443817
2022-10-19T02:37:52.545Z,9.443838
2022-10-19T02:38:52.529Z,9.443826
2022-10-19T02:39:52.520Z,9.443841
2022-10-19T02:40:52.546Z,9.443818
2022-10-19T02:41:52.500Z,9.443805
2022-10-19T02:42:52.501Z,9.443752
2022-10-19T02:43:52.521Z,9.443775
2022-10-19T02:44:52.487Z,9.443707
2022-10-19T02:45:52.520Z,9.443707
2022-10-19T02:46:52.498Z,9.443751
2022-10-19T02:47:52.476Z,9.443752
2022-10-19T02:48:52.495Z,9.443721
2022-10-19T02:49:52.472Z,9.443717
2022-10-19T02:50:52.453Z,9.443727
2022-10-19T02:51:52.449Z,9.443773
2022-10-19T02:52:52.449Z,9.443808
2022-10-19T02:53:52.444Z,9.443706
2022-10-19T02:54:52.421Z,9.443716
2022-10-19T02:55:52.450Z,9.443722
2022-10-19T02:56:52.417Z,9.443708
2022-10-19T02:57:52.424Z,9.443719
2022-10-19T02:58:52.393Z,9.443708
2022-10-19T02:59:52.392Z,9.443753
2022-10-19T03:00:52.459Z,9.443687
2022-10-19T03:01:52.387Z,9.443672
2022-10-19T03:02:52.385Z,9.443690
2022-10-19T03:03:52.375Z,9.443748
2022-10-19T03:04:52.367Z,9.443748
2022-10-19T03:05:52.369Z,9.443696
2022-10-19T03:06:52.349Z,9.443716
2022-10-19T03:07:52.349Z,9.443739
2022-10-19T03:08:52.333Z,9.443744
2022-10-19T03:09:52.336Z,9.443753
2022-10-19T03:10:52.321Z,9.443751
2022-10-19T03:11:52.352Z,9.443776
2022-10-19T03:12:52.309Z,9.443749
2022-10-19T03:13:52.308Z,9.443748
2022-10-19T03:14:52.320Z,9.443736
2022-10-19T03:15:52.296Z,9.443720
2022-10-19T03:16:52.418Z,9.443728
2022-10-19T03:17:52.277Z,9.443776
2022-10-19T03:18:52.290Z,9.443707
2022-10-19T03:19:52.253Z,9.443728
2022-10-19T03:20:52.289Z,9.443716
2022-10-19T03:21:52.244Z,9.443724
2022-10-19T03:23:52.288Z,9.443690
2022-10-19T03:24:52.228Z,9.443739
2022-10-19T03:25:52.240Z,9.443684
2022-10-19T03:26:52.235Z,9.443709
2022-10-19T03:27:52.212Z,9.443707
2022-10-19T03:28:52.265Z,9.443602
2022-10-19T03:29:52.203Z,9.443653
2022-10-19T03:30:52.188Z,9.443664
2022-10-19T03:31:52.193Z,9.443673
2022-10-19T03:32:52.195Z,9.443707
2022-10-19T03:33:52.184Z,9.443704
2022-10-19T03:34:52.205Z,9.443675
2022-10-19T03:35:52.164Z,9.443604
2022-10-19T03:36:52.160Z,9.443641
2022-10-19T03:37:52.132Z,9.443631
2022-10-19T03:38:52.140Z,9.443564
2022-10-19T03:39:52.133Z,9.443687
2022-10-19T03:40:52.120Z,9.443735
2022-10-19T03:41:52.140Z,9.443728
2022-10-19T03:42:52.116Z,9.443737
2022-10-19T03:43:52.182Z,9.443718
2022-10-19T03:44:52.100Z,9.443749
2022-10-19T03:45:52.092Z,9.443761
2022-10-19T03:46:52.075Z,9.443692
2022-10-19T03:47:52.087Z,9.443766
2022-10-19T03:48:52.094Z,9.443732
2022-10-19T03:49:52.061Z,9.443719
2022-10-19T03:50:52.062Z,9.443689
2022-10-19T03:51:52.053Z,9.443719
2022-10-19T03:52:52.096Z,9.443751
2022-10-19T03:53:52.055Z,9.443727
2022-10-19T03:54:52.028Z,9.443808
2022-10-19T03:55:52.065Z,9.443750
2022-10-19T03:56:52.093Z,9.443737
2022-10-19T03:57:52.025Z,9.443733
2022-10-19T03:58:52.012Z,9.443726
2022-10-19T03:59:52.007Z,9.443757
2022-10-19T04:00:52.033Z,9.443722
2022-10-19T04:01:52.853Z,9.443725
2022-10-19T04:02:51.999Z,9.443726
2022-10-19T04:03:52.017Z,9.443709
2022-10-19T04:04:51.962Z,9.443655
2022-10-19T04:05:51.970Z,9.443667
2022-10-19T04:06:51.941Z,9.443640
2022-10-19T04:07:51.949Z,9.443715
2022-10-19T04:08:51.956Z,9.443727
2022-10-19T04:09:52.022Z,9.443721
2022-10-19T04:10:51.949Z,9.443718
2022-10-19T04:11:51.908Z,9.443750
2022-10-19T04:12:53.889Z,9.443673
2022-10-19T04:13:52.934Z,9.443613
2022-10-19T04:14:57.293Z,9.443560
2022-10-19T04:15:53.885Z,9.443648
2022-10-19T04:16:52.463Z,9.443562
2022-10-19T04:17:52.474Z,9.443663
2022-10-19T04:18:51.870Z,9.443671
2022-10-19T04:19:51.904Z,9.443631
2022-10-19T04:20:51.845Z,9.443663
2022-10-19T04:21:51.852Z,9.443618
2022-10-19T04:22:51.854Z,9.443702
2022-10-19T04:23:51.851Z,9.443712
2022-10-19T04:24:52.409Z,9.443701
2022-10-19T04:25:51.921Z,9.443666
2022-10-19T04:26:51.860Z,9.443664
2022-10-19T04:27:51.800Z,9.443604
2022-10-19T04:28:51.857Z,9.443666
2022-10-19T04:29:51.812Z,9.443720
2022-10-19T04:30:51.781Z,9.443687
2022-10-19T04:31:51.822Z,9.443663
2022-10-19T04:32:51.797Z,9.443676
2022-10-19T04:33:51.778Z,9.443659
2022-10-19T04:34:51.818Z,9.443686
2022-10-19T04:35:51.746Z,9.443635
2022-10-19T04:36:51.774Z,9.443648
2022-10-19T04:37:51.785Z,9.443615
2022-10-19T04:38:51.829Z,9.443650
2022-10-19T04:39:51.813Z,9.443672
2022-10-19T04:40:51.749Z,9.443682
2022-10-19T04:41:51.704Z,9.443864
2022-10-19T04:42:51.706Z,9.443831
2022-10-19T04:43:51.833Z,9.443773
2022-10-19T04:44:51.901Z,9.443710
2022-10-19T04:45:51.696Z,9.443742
2022-10-19T04:46:51.692Z,9.443668
2022-10-19T04:47:51.668Z,9.443721
2022-10-19T04:48:51.696Z,9.443779
2022-10-19T04:49:51.685Z,9.443813
2022-10-19T04:50:51.839Z,9.443784
2022-10-19T04:51:52.434Z,9.443684
2022-10-19T04:52:51.688Z,9.443727
2022-10-19T04:53:53.362Z,9.443781
2022-10-19T04:54:51.629Z,9.443782
2022-10-19T04:55:52.633Z,9.443706
2022-10-19T04:56:51.616Z,9.443706
2022-10-19T04:57:51.624Z,9.443725
2022-10-19T04:58:51.599Z,9.443790
2022-10-19T04:59:51.612Z,9.443786
2022-10-19T05:00:51.665Z,9.443768
2022-10-19T05:01:51.577Z,9.443759
2022-10-19T05:03:24.016Z,9.443753
2022-10-19T05:03:51.609Z,9.443796
2022-10-19T05:04:51.614Z,9.443810
2022-10-19T05:05:51.572Z,9.443748
2022-10-19T05:06:51.588Z,9.443700
2022-10-19T05:07:51.542Z,9.443700
2022-10-19T05:08:51.540Z,9.443769
2022-10-19T05:09:51.551Z,9.443809
2022-10-19T05:10:51.514Z,9.443744
2022-10-19T05:11:51.534Z,9.443808
2022-10-19T05:12:51.502Z,9.443934
2022-10-19T05:13:51.495Z,9.444039
2022-10-19T05:14:51.510Z,9.443824
2022-10-19T05:15:51.547Z,9.443842
2022-10-19T05:16:51.491Z,9.443913
2022-10-19T05:17:51.522Z,9.443830
2022-10-19T05:18:51.502Z,9.443892
2022-10-19T05:19:51.494Z,9.444014
2022-10-19T05:20:51.441Z,9.443928
2022-10-19T05:21:51.453Z,9.443825
2022-10-19T05:22:51.558Z,9.443694
2022-10-19T05:23:51.457Z,9.443668
2022-10-19T05:24:54.505Z,9.443700
2022-10-19T05:25:53.434Z,9.443805
2022-10-19T05:26:51.441Z,9.443836
2022-10-19T05:27:51.416Z,9.443733
2022-10-19T05:28:51.419Z,9.443744
2022-10-19T05:29:51.407Z,9.443747
2022-10-19T05:30:51.442Z,9.443765
2022-10-19T05:31:51.413Z,9.443748
2022-10-19T05:32:51.422Z,9.443728
2022-10-19T05:33:51.438Z,9.443737
2022-10-19T05:34:51.402Z,9.443684
2022-10-19T05:35:51.357Z,9.443748
2022-10-19T05:36:51.357Z,9.443756
2022-10-19T05:37:51.422Z,9.443816
2022-10-19T05:38:51.346Z,9.443791
2022-10-19T05:39:51.333Z,9.443646
2022-10-19T05:40:53.576Z,9.443665
2022-10-19T05:41:51.318Z,9.443748
2022-10-19T05:42:51.342Z,9.443769
2022-10-19T05:43:51.318Z,9.443712
2022-10-19T05:44:51.315Z,9.443677
2022-10-19T05:45:51.290Z,9.443716
2022-10-19T05:46:51.358Z,9.443721
2022-10-19T05:47:51.285Z,9.443735
2022-10-19T05:48:51.986Z,9.443725
2022-10-19T05:49:51.270Z,9.443726
2022-10-19T05:50:51.278Z,9.443710
2022-10-19T05:51:51.277Z,9.443700
2022-10-19T05:52:51.266Z,9.443695
2022-10-19T05:53:51.274Z,9.443664
2022-10-19T05:54:51.222Z,9.443671
2022-10-19T05:55:51.222Z,9.443678
2022-10-19T05:56:51.294Z,9.443699
2022-10-19T05:57:51.231Z,9.443692
2022-10-19T05:58:52.029Z,9.443718
2022-10-19T05:59:51.193Z,9.443708
2022-10-19T06:00:51.211Z,9.443719
2022-10-19T06:01:51.211Z,9.443695
2022-10-19T06:02:53.697Z,9.443714
2022-10-19T06:03:51.162Z,9.443730
2022-10-19T06:04:51.167Z,9.443727
2022-10-19T06:05:51.991Z,9.443738
2022-10-19T06:06:51.137Z,9.443709
2022-10-19T06:07:51.161Z,9.443686
2022-10-19T06:08:51.144Z,9.443678
2022-10-19T06:09:51.121Z,9.443624
2022-10-19T06:10:51.134Z,9.443693
2022-10-19T06:11:51.109Z,9.443655
2022-10-19T06:12:51.198Z,9.443720
2022-10-19T06:13:51.105Z,9.443793
2022-10-19T06:14:51.174Z,9.443823
2022-10-19T06:15:51.096Z,9.443759
2022-10-19T06:16:51.131Z,9.443711
2022-10-19T06:17:51.082Z,9.443745
2022-10-19T06:18:51.086Z,9.443776
2022-10-19T06:19:51.077Z,9.443843
2022-10-19T06:20:51.058Z,9.443724
2022-10-19T06:21:51.224Z,9.443700
2022-10-19T06:22:51.050Z,9.443719
2022-10-19T06:23:51.060Z,9.443738
2022-10-19T06:24:51.050Z,9.443767
2022-10-19T06:25:51.018Z,9.443767
2022-10-19T06:26:51.054Z,9.443737
2022-10-19T06:27:51.044Z,9.443819
2022-10-19T06:28:51.018Z,9.443768
2022-10-19T06:29:51.006Z,9.443894
2022-10-19T06:30:51.036Z,9.443754
2022-10-19T06:31:51.082Z,9.443773
2022-10-19T06:32:51.138Z,9.443697
2022-10-19T06:33:51.006Z,9.443913
2022-10-19T06:34:55.717Z,9.443815
2022-10-19T06:35:52.970Z,9.443685
2022-10-19T06:36:50.947Z,9.443751
2022-10-19T06:37:50.942Z,9.443819
2022-10-19T06:38:51.015Z,9.443900
2022-10-19T06:39:51.212Z,9.443875
2022-10-19T06:40:50.923Z,9.443884
2022-10-19T06:41:50.939Z,9.443864
2022-10-19T06:42:50.939Z,9.443754
2022-10-19T06:43:50.955Z,9.443680
2022-10-19T06:44:50.917Z,9.443666
2022-10-19T06:45:50.933Z,9.443686
2022-10-19T06:46:50.943Z,9.443750
2022-10-19T06:47:51.010Z,9.443686
2022-10-19T06:48:50.916Z,9.443694
2022-10-19T06:49:50.882Z,9.443667
2022-10-19T06:50:50.857Z,9.443701
2022-10-19T06:51:50.842Z,9.443764
2022-10-19T06:52:50.975Z,9.443807
2022-10-19T06:53:52.815Z,9.443646
2022-10-19T06:54:51.862Z,9.443647
2022-10-19T06:55:50.814Z,9.443591
2022-10-19T06:56:50.845Z,9.443609
2022-10-19T06:57:50.858Z,9.443648
2022-10-19T06:58:50.817Z,9.443785
2022-10-19T06:59:52.880Z,9.443825
2022-10-19T07:00:50.873Z,9.443788
2022-10-19T07:01:50.781Z,9.443716
2022-10-19T07:02:50.807Z,9.443770
2022-10-19T07:03:50.770Z,9.443660
2022-10-19T07:04:50.774Z,9.443727
2022-10-19T07:05:50.775Z,9.443720
2022-10-19T07:06:50.741Z,9.443759
2022-10-19T07:07:50.817Z,9.443703
2022-10-19T07:08:50.729Z,9.443657
2022-10-19T07:09:50.726Z,9.443727
2022-10-19T07:10:50.717Z,9.443777
2022-10-19T07:11:50.762Z,9.443773
2022-10-19T07:12:50.714Z,9.443723
2022-10-19T07:13:50.697Z,9.443802
2022-10-19T07:14:50.685Z,9.443659
2022-10-19T07:15:50.713Z,9.443521
2022-10-19T07:16:50.699Z,9.443593
2022-10-19T07:17:50.682Z,9.443582
2022-10-19T07:18:50.668Z,9.443542
2022-10-19T07:19:50.653Z,9.443593
2022-10-19T07:20:50.677Z,9.443664
2022-10-19T07:21:50.654Z,9.443673
2022-10-19T07:22:50.646Z,9.443703
2022-10-19T07:23:50.635Z,9.443715
2022-10-19T07:24:50.661Z,9.443842
2022-10-19T07:25:50.626Z,9.443789
2022-10-19T07:26:50.609Z,9.443751
2022-10-19T07:27:50.965Z,9.443721
2022-10-19T07:28:50.669Z,9.443682
2022-10-19T07:29:50.595Z,9.443649
2022-10-19T07:30:50.617Z,9.443686
2022-10-19T07:31:50.587Z,9.443705
2022-10-19T07:32:50.617Z,9.443686
2022-10-19T07:33:50.560Z,9.443693
2022-10-19T07:34:50.556Z,9.443651
2022-10-19T07:35:50.563Z,9.443657
2022-10-19T07:36:50.561Z,9.443666
2022-10-19T07:37:50.561Z,9.443693
2022-10-19T07:38:50.537Z,9.443729
2022-10-19T07:39:50.586Z,9.443771
2022-10-19T07:40:50.544Z,9.443768
2022-10-19T07:41:50.516Z,9.443703
2022-10-19T07:42:50.528Z,9.443701
2022-10-19T07:43:50.511Z,9.443725
2022-10-19T07:44:50.512Z,9.443742
2022-10-19T07:45:50.497Z,9.443738
2022-10-19T07:46:50.485Z,9.443717
2022-10-19T07:47:50.483Z,9.443679
2022-10-19T07:48:50.472Z,9.443689
2022-10-19T07:49:50.575Z,9.443693
2022-10-19T07:50:50.452Z,9.443702
2022-10-19T07:51:50.457Z,9.443698
2022-10-19T07:52:50.476Z,9.443681
2022-10-19T07:53:50.481Z,9.443703
2022-10-19T07:54:50.500Z,9.443702
2022-10-19T07:55:50.456Z,9.443723
2022-10-19T07:56:50.431Z,9.443709
2022-10-19T07:57:50.419Z,9.443696
2022-10-19T07:58:50.404Z,9.443691
2022-10-19T07:59:50.403Z,9.443718
2022-10-19T08:00:50.436Z,9.443735
2022-10-19T08:01:50.522Z,9.443722
2022-10-19T08:03:00.096Z,9.443726
2022-10-19T08:05:02.062Z,9.443692
2022-10-19T08:05:52.370Z,9.443695
2022-10-19T08:06:50.355Z,9.443713
2022-10-19T08:07:50.367Z,9.443705
2022-10-19T08:08:50.361Z,9.443666
2022-10-19T08:09:54.333Z,9.443617
2022-10-19T08:10:51.351Z,9.443653
2022-10-19T08:11:50.340Z,9.443704
2022-10-19T08:12:50.335Z,9.443762
2022-10-19T08:13:50.314Z,9.443719
2022-10-19T08:14:50.302Z,9.443696
2022-10-19T08:15:50.303Z,9.443665
2022-10-19T08:16:50.286Z,9.443739
2022-10-19T08:17:50.310Z,9.443754
2022-10-19T08:18:50.279Z,9.443801
2022-10-19T08:19:50.270Z,9.443677
2022-10-19T08:20:50.275Z,9.443687
2022-10-19T08:21:50.264Z,9.443745
2022-10-19T08:22:52.040Z,9.443445
2022-10-19T08:23:50.258Z,9.443754
2022-10-19T08:24:50.250Z,9.443624
2022-10-19T08:25:50.236Z,9.443683
2022-10-19T08:26:50.234Z,9.443732
2022-10-19T08:27:50.222Z,9.443753
2022-10-19T08:28:50.238Z,9.443751
2022-10-19T08:29:50.215Z,9.443772
2022-10-19T08:30:50.206Z,9.443721
2022-10-19T08:31:50.224Z,9.443699
2022-10-19T08:32:50.191Z,9.443713
2022-10-19T08:33:50.195Z,9.443769
2022-10-19T08:34:50.218Z,9.443749
2022-10-19T08:35:50.167Z,9.443694
2022-10-19T08:36:50.167Z,9.443661
2022-10-19T08:37:50.565Z,9.443746
2022-10-19T08:38:50.164Z,9.443676
2022-10-19T08:39:50.171Z,9.443607
2022-10-19T08:40:50.133Z,9.443525
2022-10-19T08:41:51.068Z,9.443611
2022-10-19T08:42:50.131Z,9.443628
2022-10-19T08:43:50.149Z,9.443695
2022-10-19T08:44:50.122Z,9.443608
2022-10-19T08:45:50.139Z,9.443598
2022-10-19T08:46:50.147Z,9.443617
2022-10-19T08:47:50.229Z,9.443633
2022-10-19T08:48:50.099Z,9.443648
2022-10-19T08:49:50.080Z,9.443622
2022-10-19T08:50:50.073Z,9.443731
2022-10-19T08:51:50.113Z,9.443669
2022-10-19T08:52:50.065Z,9.443595
2022-10-19T08:53:50.053Z,9.443634
2022-10-19T08:54:50.095Z,9.443569
2022-10-19T08:55:50.041Z,9.443598
2022-10-19T08:56:51.834Z,9.443567
2022-10-19T08:57:51.057Z,9.443589
2022-10-19T08:58:50.025Z,9.443680
2022-10-19T08:59:50.096Z,9.443664
2022-10-19T09:00:50.032Z,9.443651
2022-10-19T09:01:50.024Z,9.443675
2022-10-19T09:02:50.086Z,9.443680
2022-10-19T09:03:55.451Z,9.443708
2022-10-19T09:04:52.199Z,9.443712
2022-10-19T09:05:50.048Z,9.443689
2022-10-19T09:06:49.988Z,9.443719
2022-10-19T09:07:50.007Z,9.443748
2022-10-19T09:08:50.013Z,9.443679
2022-10-19T09:09:49.998Z,9.443634
2022-10-19T09:10:49.982Z,9.443654
2022-10-19T09:11:49.948Z,9.443647
2022-10-19T09:12:52.818Z,9.443531
2022-10-19T09:14:04.842Z,9.443586
2022-10-19T09:14:51.937Z,9.443603
2022-10-19T09:15:49.930Z,9.443669
2022-10-19T09:16:49.917Z,9.443660
2022-10-19T09:17:50.018Z,9.443632
2022-10-19T09:18:49.996Z,9.443617
2022-10-19T09:19:49.922Z,9.443645
2022-10-19T09:20:49.939Z,9.443631
2022-10-19T09:21:49.925Z,9.443683
2022-10-19T09:22:49.875Z,9.443762
2022-10-19T09:23:49.894Z,9.443761
2022-10-19T09:24:49.862Z,9.443610
2022-10-19T09:25:49.867Z,9.443742
2022-10-19T09:26:49.910Z,9.443771
2022-10-19T09:27:49.846Z,9.443752
2022-10-19T09:28:49.867Z,9.443643
2022-10-19T09:29:49.823Z,9.443769
2022-10-19T09:30:49.818Z,9.443686
2022-10-19T09:31:49.864Z,9.443722
2022-10-19T09:32:49.811Z,9.443777
2022-10-19T09:33:49.839Z,9.443597
2022-10-19T09:34:49.834Z,9.443855
2022-10-19T09:35:49.792Z,9.443889
2022-10-19T09:36:51.162Z,9.443742
2022-10-19T09:37:49.793Z,9.443673
2022-10-19T09:38:49.771Z,9.443716
2022-10-19T09:39:54.057Z,9.443571
2022-10-19T09:40:51.761Z,9.443632
2022-10-19T09:41:49.792Z,9.443687
2022-10-19T09:42:49.754Z,9.443672
2022-10-19T09:43:49.779Z,9.443684
2022-10-19T09:44:49.751Z,9.443788
2022-10-19T09:45:49.786Z,9.443728
2022-10-19T09:46:49.754Z,9.443707
2022-10-19T09:47:49.723Z,9.443769
2022-10-19T09:48:49.722Z,9.443707
2022-10-19T09:49:49.764Z,9.443692
2022-10-19T09:50:49.680Z,9.443703
2022-10-19T09:51:49.791Z,9.443706
2022-10-19T09:52:49.671Z,9.443697
2022-10-19T09:53:49.707Z,9.443747
2022-10-19T09:54:49.967Z,9.443673
2022-10-19T09:56:50.431Z,9.443650
2022-10-19T09:57:49.764Z,9.443643
2022-10-19T09:58:50.382Z,9.443657
2022-10-19T09:59:49.803Z,9.443777
2022-10-19T10:00:49.670Z,9.443660
2022-10-19T10:01:49.735Z,9.443587
2022-10-19T10:02:49.619Z,9.443512
2022-10-19T10:03:52.500Z,9.443364
2022-10-19T10:04:50.604Z,9.443502
2022-10-19T10:05:49.635Z,9.443344
2022-10-19T10:06:49.604Z,9.443451
2022-10-19T10:07:49.595Z,9.443624
2022-10-19T10:08:49.607Z,9.443604
2022-10-19T10:09:49.580Z,9.443629
2022-10-19T10:10:49.610Z,9.443586
2022-10-19T10:11:49.652Z,9.443609
2022-10-19T10:12:49.586Z,9.443493
2022-10-19T10:13:49.559Z,9.443717
2022-10-19T10:14:49.579Z,9.443767
2022-10-19T10:15:49.572Z,9.443733
2022-10-19T10:16:49.525Z,9.443708
2022-10-19T10:17:49.536Z,9.443769
2022-10-19T10:18:49.510Z,9.443646
2022-10-19T10:19:49.525Z,9.443727
2022-10-19T10:20:49.556Z,9.443724
2022-10-19T10:21:49.487Z,9.443709
2022-10-19T10:22:49.525Z,9.443680
2022-10-19T10:23:49.482Z,9.443667
2022-10-19T10:24:49.482Z,9.443673
2022-10-19T10:25:49.602Z,9.443653
2022-10-19T10:26:49.507Z,9.443670
2022-10-19T10:27:49.514Z,9.443697
2022-10-19T10:28:49.452Z,9.443700
2022-10-19T10:29:49.496Z,9.443702
2022-10-19T10:30:49.434Z,9.443593
2022-10-19T10:31:49.452Z,9.443609
2022-10-19T10:32:49.490Z,9.443666
2022-10-19T10:33:49.568Z,9.443607
2022-10-19T10:34:53.075Z,9.443686
2022-10-19T10:35:51.418Z,9.443604
2022-10-19T10:36:49.428Z,9.443623
2022-10-19T10:37:49.421Z,9.443667
2022-10-19T10:38:49.421Z,9.443721
2022-10-19T10:39:49.425Z,9.443733
2022-10-19T10:40:49.373Z,9.443695
2022-10-19T10:41:49.374Z,9.443689
2022-10-19T10:42:49.381Z,9.443772
2022-10-19T10:43:49.377Z,9.443685
2022-10-19T10:44:49.337Z,9.443673
2022-10-19T10:45:49.341Z,9.443623
2022-10-19T10:46:49.363Z,9.443637
2022-10-19T10:47:49.446Z,9.443662
2022-10-19T10:48:51.483Z,9.443617
2022-10-19T10:49:49.406Z,9.443691
2022-10-19T10:50:49.305Z,9.443731
2022-10-19T10:51:52.211Z,9.443697
2022-10-19T10:52:49.295Z,9.443662
2022-10-19T10:53:49.449Z,9.443595
2022-10-19T10:54:49.314Z,9.443589
2022-10-19T10:55:49.269Z,9.443676
2022-10-19T10:56:49.319Z,9.443657
2022-10-19T10:57:49.337Z,9.443552
2022-10-19T10:58:49.263Z,9.443451
2022-10-19T10:59:49.284Z,9.443522
2022-10-19T11:00:50.053Z,9.443600
2022-10-19T11:01:49.311Z,9.443604
2022-10-19T11:02:49.267Z,9.443610
2022-10-19T11:03:49.222Z,9.443652
2022-10-19T11:04:52.176Z,9.443677
2022-10-19T11:05:49.223Z,9.443608
2022-10-19T11:06:49.222Z,9.443691
2022-10-19T11:07:49.249Z,9.443624
2022-10-19T11:08:49.406Z,9.443587
2022-10-19T11:09:49.237Z,9.443568
2022-10-19T11:10:49.242Z,9.443529
2022-10-19T11:11:49.194Z,9.443583
2022-10-19T11:12:49.200Z,9.443637
2022-10-19T11:13:49.169Z,9.443644
2022-10-19T11:14:49.274Z,9.443614
2022-10-19T11:15:49.166Z,9.443634
2022-10-19T11:16:49.177Z,9.443607
2022-10-19T11:17:49.144Z,9.443661
2022-10-19T11:18:49.174Z,9.443623
2022-10-19T11:19:49.136Z,9.443836
2022-10-19T11:20:49.248Z,9.443862
2022-10-19T11:21:49.113Z,9.443610
2022-10-19T11:22:49.122Z,9.443722
2022-10-19T11:23:49.103Z,9.443629
2022-10-19T11:24:49.183Z,9.443573
2022-10-19T11:25:49.103Z,9.443686
2022-10-19T11:26:49.164Z,9.443773
2022-10-19T11:27:49.095Z,9.443695
2022-10-19T11:28:49.126Z,9.443577
2022-10-19T11:29:49.071Z,9.443680
2022-10-19T11:30:50.725Z,9.443720
2022-10-19T11:31:50.083Z,9.443776
2022-10-19T11:32:49.063Z,9.443765
2022-10-19T11:33:49.021Z,9.443737
2022-10-19T11:34:50.037Z,9.443399
2022-10-19T11:35:49.046Z,9.443614
2022-10-19T11:36:49.041Z,9.443581
2022-10-19T11:37:50.063Z,9.443647
2022-10-19T11:38:50.991Z,9.443632
2022-10-19T11:39:49.182Z,9.443728
2022-10-19T11:41:12.847Z,9.443724
2022-10-19T11:41:51.036Z,9.443716
2022-10-19T11:42:48.970Z,9.443726
2022-10-19T11:43:49.032Z,9.443833
2022-10-19T11:44:49.618Z,9.443899
2022-10-19T11:45:50.723Z,9.443739
2022-10-19T11:46:48.939Z,9.443738
2022-10-19T11:47:48.939Z,9.443769
2022-10-19T11:48:52.875Z,9.443761